首页
METAR-TAF:

METAR-TAF

机场 :

花卷機場

花卷, 日本

纬度: 39-26N, 经度: 141-08E, 海拔: 90米

当前天气观测

该预报发布于42分钟前的01:00 UTC
风速2节,风向多变
温度 18°C
湿度 73%
气压 1016 hPa
能见度10公里或以上
少量云层高于2500英尺
多云

METAR: RJSI 200100Z VRB02KT 9999 FEW025 BKN/// 18/13 Q1016

时间: 10:42 (01:42 UTC)


TAF: 丢失

超过4000个机场的气象观测和天气预报(METAR&TAF报告)。

可查询的气象台以黄色和红色小点在地图上表示。

将鼠标移到小点上方,可查看气象台名称。

然后点击查看天气观测和预报。

如需切换地图:点击带黑十字的绿色按钮放大地图;点击带横线的绿色按钮缩小地图;或者点击绿色箭头查看邻近地区的地图。


METAR-TAF: